This is the latest recevied weather packets stored in our database for station/object RW6A-13. If no packets are shown the sender has not sent any weather packets the latest 10 day(s).
| Time | Temp. | Humidity | Pressure | Rain* | Wind** | Luminosity | Snow |
|---|---|---|---|---|---|---|---|
| 1777792083 | 13.89° C | 57% | 1014.7 hPa | 0 mm | - | - | - |
| 1777791784 | 13.89° C | 57% | 1014.7 hPa | 0 mm | - | - | - |
| 1777791483 | 13.33° C | 59% | 1014.8 hPa | 0 mm | - | - | - |
| 1777791184 | 13.33° C | 58% | 1014.7 hPa | 0 mm | - | - | - |
| 1777790883 | 13.33° C | 58% | 1014.8 hPa | 0 mm | - | - | - |
| 1777790583 | 13.89° C | 58% | 1014.8 hPa | 0 mm | - | - | - |
| 1777790282 | 13.33° C | 59% | 1014.7 hPa | 0 mm | - | - | - |
| 1777789983 | 13.89° C | 57% | 1014.7 hPa | 0 mm | - | - | - |
| 1777789682 | 13.89° C | 58% | 1014.8 hPa | 0 mm | - | - | - |
| 1777789381 | 14.44° C | 57% | 1014.9 hPa | 0 mm | - | - | - |
| 1777789081 | 13.33° C | 60% | 1014.8 hPa | 0 mm | - | - | - |
| 1777788782 | 14.44° C | 61% | 1014.9 hPa | 0 mm | - | - | - |
| 1777788482 | 13.89° C | 62% | 1015 hPa | 0 mm | - | - | - |
| 1777788182 | 13.33° C | 64% | 1015 hPa | 0 mm | - | - | - |
| 1777787882 | 12.78° C | 65% | 1014.9 hPa | 0 mm | - | - | - |
| 1777787582 | 12.78° C | 66% | 1014.9 hPa | 0 mm | - | - | - |
| 1777787281 | 12.22° C | 68% | 1014.9 hPa | 0 mm | - | - | - |
| 1777786982 | 12.22° C | 66% | 1015 hPa | 0 mm | - | - | - |
| 1777786682 | 12.78° C | 65% | 1015 hPa | 0 mm | - | - | - |
| 1777786381 | 12.22° C | 69% | 1015.1 hPa | 0 mm | - | - | - |
| 1777786081 | 12.22° C | 68% | 1015.1 hPa | 0 mm | - | - | - |
| 1777785781 | 11.67° C | 71% | 1015.2 hPa | 0 mm | - | - | - |
| 1777785482 | 11.11° C | 72% | 1015.3 hPa | 0 mm | - | - | - |
| 1777785181 | 10.56° C | 73% | 1015.4 hPa | 0 mm | - | - | - |
| 1777784881 | 10° C | 72% | 1015.4 hPa | 0 mm | - | - | - |
* Rain latest hour (hover to see other rain measurements)
** Current wind speed in m/s (hover to see current wind gust speed)